Sunday, August 28, 2016

  Over 48,494,314 pages visited!

GMT:
10:19
PACIFIC:
3:19:21 AM
MOUNTAIN:
4:19:21 AM

CENTRAL:
5:19:21 AM

EASTERN:
6:19:21 AM
ATLANTIC:
7:19:21 AM
NEWFOUNDLAND:
7:49:21 AM
 

 


Watches/Warnings
Current Conditions
Radar/Satellite
Lightning Images


Current Weather Conditions For TORONTO PEARSON,ON

 


A Few Clouds
 

Temperature: 22�C / 72�F
Dew Point: 18 �C / 64�F
Humidity: 78 %
Pressure: 1019.9 mbs (30.12 inches)
Visibility: 24.1 kms (15 SM)
Wind Direction: N (000�)
Wind Speed: 0 Km/h (0 MPH)
Max Wind Gust: No Gusts
Humidex: 28�C
WindChill: N/A
    

Observation Information

Date/Time: Sunday, August 28, 2016 @ 10:00Z
Local Time:
Metar Coded: CYYZ 281000Z 00000KT 15SM FEW100 BKN250 22/18 A3012 RMK AC2CI5 SLP199 DENSITY ALT 1200FT

 

 

                   1997-2016 The Ontario Weather Page